Time;durP1;ratioP1;P1;durP2;ratioP2;P2;SDS_P1;SDS_P2;PMS_P1;PMS_P2;Temp;Humidity;BMP_temperature;BMP_pressure;BME280_temperature;BME280_humidity;BME280_pressure;Samples;Min_cycle;Max_cycle;Signal;HPM_P1;HPM_P2
2022/12/23 00:02:26;;;;;;;15.27;10.57;;;7.70;99.90;;;;;;2603517;54;20023;31
2022/12/23 00:05:04;;;;;;;21.17;12.63;;;7.60;99.90;;;;;;2602848;54;19934;31
2022/12/23 00:07:40;;;;;;;15.52;10.43;;;7.60;99.90;;;;;;2603484;54;20911;31
2022/12/23 00:10:15;;;;;;;16.30;10.70;;;7.60;99.90;;;;;;2603551;54;20046;31
2022/12/23 00:15:37;;;;;;;15.23;11.57;;;7.50;99.90;;;;;;2603395;54;20896;31
2022/12/23 00:18:12;;;;;;;18.10;10.93;;;7.50;99.90;;;;;;2603671;54;20093;31
2022/12/23 00:20:52;;;;;;;21.70;14.10;;;7.50;99.90;;;;;;2603411;54;20057;31
2022/12/23 00:23:29;;;;;;;21.90;14.20;;;7.50;99.90;;;;;;2603519;54;20803;31
2022/12/23 00:26:04;;;;;;;18.90;13.75;;;7.40;99.90;;;;;;2603544;54;20913;31
2022/12/23 00:28:39;;;;;;;18.00;11.55;;;7.40;99.90;;;;;;2603417;54;20064;31
2022/12/23 00:31:16;;;;;;;19.88;12.77;;;7.40;99.90;;;;;;2603326;54;20026;31
2022/12/23 00:33:53;;;;;;;17.17;11.68;;;7.30;99.90;;;;;;2602924;54;20073;31
2022/12/23 00:36:31;;;;;;;21.90;13.57;;;7.30;99.90;;;;;;2603411;54;20030;31
2022/12/23 00:44:45;;;;;;;14.25;9.90;;;7.20;99.90;;;;;;2603396;54;20027;31
2022/12/23 00:50:10;;;;;;;20.90;12.60;;;7.10;99.90;;;;;;2603398;54;20732;31
2022/12/23 00:52:49;;;;;;;18.50;12.00;;;7.10;99.90;;;;;;2603466;54;20048;31
2022/12/23 00:55:23;;;;;;;18.17;12.50;;;7.10;99.90;;;;;;2603329;54;20307;31
2022/12/23 00:57:57;;;;;;;19.15;13.10;;;7.10;99.90;;;;;;2603569;54;20270;31
2022/12/23 01:06:08;;;;;;;20.10;12.88;;;7.10;99.90;;;;;;2603265;54;20030;31
2022/12/23 01:08:46;;;;;;;;;;;7.10;99.90;;;;;;2603585;54;20049;31
2022/12/23 01:11:24;;;;;;;18.00;12.15;;;7.10;99.90;;;;;;2603276;54;19941;31
2022/12/23 01:14:02;;;;;;;21.50;14.95;;;7.00;99.90;;;;;;2603526;54;20026;31
2022/12/23 01:16:40;;;;;;;31.40;18.20;;;7.10;99.90;;;;;;2603522;54;20822;31
2022/12/23 01:19:15;;;;;;;27.05;17.35;;;7.00;99.90;;;;;;2602484;54;20920;31
2022/12/23 01:21:51;;;;;;;21.77;16.15;;;7.00;99.90;;;;;;2603263;54;20033;31
2022/12/23 01:24:28;;;;;;;;;;;7.00;99.90;;;;;;2603504;54;20050;31
2022/12/23 01:27:03;;;;;;;31.08;22.00;;;7.10;99.90;;;;;;2603402;54;19941;31
2022/12/23 01:29:37;;;;;;;32.67;24.48;;;7.00;99.90;;;;;;2603143;54;20030;31
2022/12/23 01:32:15;;;;;;;33.92;23.17;;;7.00;99.90;;;;;;2603426;54;20908;31
2022/12/23 01:34:50;;;;;;;28.17;20.67;;;7.00;99.90;;;;;;2603195;54;21028;31
2022/12/23 01:37:27;;;;;;;24.38;16.35;;;6.90;99.90;;;;;;2603389;54;20864;31
2022/12/23 01:40:05;;;;;;;19.95;12.32;;;6.90;99.90;;;;;;2603400;54;20052;31
2022/12/23 01:42:42;;;;;;;21.25;14.90;;;6.90;99.90;;;;;;2603499;54;20026;31
2022/12/23 01:45:19;;;;;;;19.90;13.60;;;6.80;99.90;;;;;;2603387;54;20879;31
2022/12/23 01:47:56;;;;;;;18.38;13.13;;;6.90;99.90;;;;;;2602510;54;20026;31
2022/12/23 01:50:33;;;;;;;21.23;14.70;;;6.80;99.90;;;;;;2603168;54;19993;31
2022/12/23 01:53:10;;;;;;;24.13;16.65;;;6.80;99.90;;;;;;2603342;54;19934;31
2022/12/23 01:55:50;;;;;;;18.35;13.43;;;6.80;99.90;;;;;;2603332;54;20046;31
2022/12/23 01:58:27;;;;;;;17.30;13.20;;;6.80;99.90;;;;;;2602911;54;20149;31
2022/12/23 02:03:52;;;;;;;29.45;20.40;;;6.70;99.90;;;;;;2621582;46;20161;31
2022/12/23 02:09:21;;;;;;;26.45;17.95;;;6.60;99.90;;;;;;2621571;46;20023;31
2022/12/23 02:12:28;;;;;;;26.73;19.45;;;6.60;99.90;;;;;;2621582;46;20033;31
2022/12/23 02:18:10;;;;;;;29.05;22.15;;;6.40;99.90;;;;;;2603034;54;19942;31
2022/12/23 02:21:01;;;;;;;30.55;22.70;;;6.40;99.90;;;;;;2602898;54;20980;31
2022/12/23 02:24:16;;;;;;;30.30;19.40;;;6.30;99.90;;;;;;2603000;54;20041;31
2022/12/23 02:27:03;;;;;;;24.08;15.00;;;6.20;99.90;;;;;;2602949;54;21088;31
2022/12/23 02:32:15;;;;;;;19.95;13.52;;;6.20;99.90;;;;;;2602920;54;20135;31
2022/12/23 02:34:52;;;;;;;20.23;13.98;;;6.10;99.90;;;;;;2603020;54;20838;31
2022/12/23 02:37:31;;;;;;;18.90;12.27;;;6.10;99.90;;;;;;2603130;54;20026;31
2022/12/23 02:40:09;;;;;;;18.10;13.05;;;6.20;99.90;;;;;;2602933;54;20026;31
2022/12/23 02:42:44;;;;;;;18.85;12.50;;;6.10;99.90;;;;;;2608637;39;21148;31
2022/12/23 02:45:20;;;;;;;17.90;13.18;;;6.10;99.90;;;;;;2603166;54;20056;31
2022/12/23 02:48:00;;;;;;;16.75;10.80;;;6.00;99.90;;;;;;2621073;47;20902;31
2022/12/23 02:50:34;;;;;;;15.32;10.63;;;6.00;99.90;;;;;;2602722;54;20030;31
2022/12/23 02:53:12;;;;;;;14.07;9.57;;;6.00;99.90;;;;;;2603130;54;20027;31
2022/12/23 02:55:47;;;;;;;14.15;9.75;;;5.90;99.90;;;;;;2602894;54;20026;31
2022/12/23 02:58:21;;;;;;;12.65;9.23;;;5.90;99.90;;;;;;2603284;54;20069;31
2022/12/23 03:00:58;;;;;;;13.40;8.48;;;5.80;99.90;;;;;;2602597;54;20155;31
2022/12/23 03:03:38;;;;;;;13.77;9.02;;;5.80;99.90;;;;;;2615199;47;20031;31
2022/12/23 03:06:21;;;;;;;10.68;8.10;;;5.80;99.90;;;;;;2603021;54;20849;31
2022/12/23 03:08:57;;;;;;;13.38;9.77;;;5.80;99.90;;;;;;2602991;54;20840;31
2022/12/23 03:11:38;;;;;;;11.05;8.35;;;5.80;99.90;;;;;;2602901;54;20022;31
2022/12/23 03:14:39;;;;;;;15.00;8.65;;;5.80;99.90;;;;;;2602786;54;20160;31
2022/12/23 03:17:22;;;;;;;16.20;9.93;;;5.80;99.90;;;;;;2602931;54;20118;31
2022/12/23 03:20:03;;;;;;;16.40;10.85;;;5.80;99.90;;;;;;2603036;54;20879;31
2022/12/23 03:22:41;;;;;;;15.13;10.10;;;5.80;99.90;;;;;;2602829;54;20038;31
2022/12/23 03:25:21;;;;;;;13.65;10.18;;;5.80;99.90;;;;;;2602765;54;20097;31
2022/12/23 03:27:57;;;;;;;19.23;12.55;;;5.70;99.90;;;;;;2602657;54;20027;31
2022/12/23 03:30:32;;;;;;;17.42;13.10;;;5.70;99.90;;;;;;2602837;54;20854;31
2022/12/23 03:33:11;;;;;;;17.58;11.60;;;5.70;99.90;;;;;;2603573;54;20101;31
2022/12/23 03:35:50;;;;;;;14.68;9.80;;;5.70;99.90;;;;;;2603741;54;20986;31
2022/12/23 03:38:25;;;;;;;19.95;13.25;;;5.70;99.90;;;;;;2603497;54;20871;31
2022/12/23 03:41:01;;;;;;;19.30;11.77;;;5.70;99.90;;;;;;2603564;54;20081;31
2022/12/23 03:43:38;;;;;;;21.57;13.67;;;5.70;99.90;;;;;;2622135;46;20966;31
2022/12/23 03:46:23;;;;;;;22.87;14.03;;;5.60;99.90;;;;;;2603951;54;20057;31
2022/12/23 03:49:00;;;;;;;18.33;12.90;;;5.60;99.90;;;;;;2603496;54;20981;31
2022/12/23 03:51:42;;;;;;;20.30;13.13;;;5.50;99.90;;;;;;2603638;54;20113;31
2022/12/23 03:54:19;;;;;;;18.57;12.27;;;5.60;99.90;;;;;;2603637;54;20027;31
2022/12/23 03:56:55;;;;;;;18.63;11.35;;;5.50;99.90;;;;;;2603933;54;20027;31
2022/12/23 03:59:31;;;;;;;16.90;10.73;;;5.50;99.90;;;;;;2603641;54;20812;31
2022/12/23 04:02:09;;;;;;;16.80;11.77;;;5.40;99.90;;;;;;2603616;54;20826;31
2022/12/23 04:07:24;;;;;;;17.38;12.60;;;5.40;99.90;;;;;;2603643;54;20026;31
2022/12/23 04:09:58;;;;;;;19.33;13.07;;;5.40;99.90;;;;;;2603642;54;20104;31
2022/12/23 04:12:33;;;;;;;17.33;12.20;;;5.30;99.90;;;;;;2603535;54;20897;31
2022/12/23 04:15:09;;;;;;;14.93;11.73;;;5.30;99.90;;;;;;2602994;54;20030;31
2022/12/23 04:17:48;;;;;;;18.42;11.93;;;5.30;99.90;;;;;;2603595;54;20026;31
2022/12/23 04:20:22;;;;;;;29.27;20.20;;;5.30;99.90;;;;;;2603686;54;20898;31
2022/12/23 04:23:02;;;;;;;31.07;21.83;;;5.30;99.90;;;;;;2603685;54;20073;31
2022/12/23 04:25:37;;;;;;;20.30;13.40;;;5.30;99.90;;;;;;2603647;54;20254;31
2022/12/23 04:28:13;;;;;;;18.15;12.20;;;5.30;99.90;;;;;;2603550;54;20108;31
2022/12/23 04:30:47;;;;;;;15.60;10.57;;;5.30;99.90;;;;;;2603651;54;20030;31
2022/12/23 04:33:25;;;;;;;17.90;11.93;;;5.30;99.90;;;;;;2603373;54;20050;31
2022/12/23 04:36:01;;;;;;;19.90;13.15;;;5.30;99.90;;;;;;2603369;54;20743;31
2022/12/23 04:38:39;;;;;;;16.10;10.80;;;5.20;99.90;;;;;;2603710;54;20884;31
2022/12/23 04:41:14;;;;;;;21.03;13.53;;;5.20;99.90;;;;;;2603674;54;20030;31
2022/12/23 04:43:49;;;;;;;19.13;12.93;;;5.30;99.90;;;;;;2603319;54;20048;31
2022/12/23 04:46:26;;;;;;;18.40;13.87;;;5.20;99.90;;;;;;2603360;54;20034;31
2022/12/23 04:49:01;;;;;;;18.35;12.95;;;5.20;99.90;;;;;;2603491;54;19934;31
2022/12/23 04:51:39;;;;;;;19.45;13.35;;;5.30;99.90;;;;;;2603281;54;20137;31
2022/12/23 04:54:17;;;;;;;16.90;13.27;;;5.30;99.90;;;;;;2621814;46;20026;31
2022/12/23 04:56:53;;;;;;;17.38;12.35;;;5.30;99.90;;;;;;2603419;54;20030;31
2022/12/23 04:59:32;;;;;;;16.73;11.95;;;5.30;99.90;;;;;;2603538;54;20894;31
2022/12/23 05:02:06;;;;;;;19.05;13.77;;;5.30;99.90;;;;;;2603487;54;20976;31
2022/12/23 05:04:43;;;;;;;18.87;13.67;;;5.30;99.90;;;;;;2603450;54;20026;31
2022/12/23 05:07:19;;;;;;;15.27;10.88;;;5.30;99.90;;;;;;2603456;54;20838;31
2022/12/23 05:10:00;;;;;;;15.48;10.82;;;5.40;99.90;;;;;;2603450;54;20054;31
2022/12/23 05:12:36;;;;;;;18.75;13.35;;;5.40;99.90;;;;;;2602724;54;20988;31
2022/12/23 05:15:14;;;;;;;18.27;13.27;;;5.40;99.90;;;;;;2603495;54;20027;31
2022/12/23 05:17:50;;;;;;;23.70;15.82;;;5.40;99.90;;;;;;2621683;46;20254;31
2022/12/23 05:20:24;;;;;;;25.10;16.70;;;5.50;99.90;;;;;;2603366;54;20026;31
2022/12/23 05:23:01;;;;;;;25.95;17.73;;;5.50;99.90;;;;;;2603137;54;20041;31
2022/12/23 05:25:38;;;;;;;22.92;16.25;;;5.50;99.90;;;;;;2603646;54;20089;31
2022/12/23 05:28:14;;;;;;;22.77;16.05;;;5.60;99.90;;;;;;2603364;54;20026;31
2022/12/23 05:30:50;;;;;;;23.48;15.75;;;5.60;99.90;;;;;;2603365;54;20808;31
2022/12/23 05:33:25;;;;;;;19.15;14.32;;;5.70;99.90;;;;;;2603205;54;20992;31
2022/12/23 05:36:03;;;;;;;24.73;14.32;;;5.70;99.90;;;;;;2603121;54;20113;31
2022/12/23 05:38:38;;;;;;;22.15;15.10;;;5.80;99.90;;;;;;2603357;54;20769;31
2022/12/23 05:41:15;;;;;;;18.00;13.00;;;5.80;99.90;;;;;;2603434;54;20029;31
2022/12/23 05:43:54;;;;;;;20.67;14.23;;;5.90;99.90;;;;;;2603174;54;20889;31
2022/12/23 05:46:31;;;;;;;17.48;12.70;;;6.00;99.90;;;;;;2603277;54;20073;31
2022/12/23 05:49:32;;;;;;;20.63;13.98;;;6.00;99.90;;;;;;2603108;54;20053;31
2022/12/23 05:52:07;;;;;;;17.60;12.57;;;6.10;99.90;;;;;;2603347;54;20052;31
2022/12/23 05:54:42;;;;;;;20.80;13.20;;;6.10;99.90;;;;;;2602901;54;20250;31
2022/12/23 05:57:21;;;;;;;16.33;12.23;;;6.10;99.90;;;;;;2603276;54;20053;31
2022/12/23 05:59:59;;;;;;;18.45;13.30;;;6.10;99.90;;;;;;2603197;54;20827;31
2022/12/23 06:02:34;;;;;;;17.92;12.85;;;6.20;99.90;;;;;;2602949;54;20931;31
2022/12/23 06:05:12;;;;;;;15.80;12.00;;;6.20;99.90;;;;;;2603125;54;20779;31
2022/12/23 06:07:52;;;;;;;17.60;12.20;;;6.30;99.90;;;;;;2603180;54;20026;31
2022/12/23 06:10:27;;;;;;;14.45;11.13;;;6.40;99.90;;;;;;2603232;54;20033;31
2022/12/23 06:13:03;;;;;;;13.05;10.50;;;6.30;99.90;;;;;;2603262;54;20026;31
2022/12/23 06:15:39;;;;;;;15.35;11.10;;;6.40;99.90;;;;;;2603222;54;20879;31
2022/12/23 06:18:15;;;;;;;14.90;9.65;;;6.40;99.90;;;;;;2602970;54;20034;31
2022/12/23 06:20:49;;;;;;;;;;;6.40;99.90;;;;;;2603241;54;20046;31
2022/12/23 06:23:25;;;;;;;13.68;9.35;;;6.40;99.90;;;;;;2621359;46;19954;31
2022/12/23 06:26:04;;;;;;;;;;;6.50;99.90;;;;;;2603443;54;20866;31
2022/12/23 06:28:42;;;;;;;13.98;9.93;;;6.50;99.90;;;;;;2603000;54;20782;31
2022/12/23 06:31:18;;;;;;;14.55;9.23;;;6.50;99.90;;;;;;2603353;54;20026;31
2022/12/23 06:33:53;;;;;;;14.70;10.47;;;6.60;99.90;;;;;;2603272;54;20026;31
2022/12/23 06:36:29;;;;;;;20.23;13.45;;;6.60;99.90;;;;;;2602935;54;21004;31
2022/12/23 06:39:06;;;;;;;;;;;6.60;99.90;;;;;;2603192;54;20049;31
2022/12/23 06:41:41;;;;;;;26.33;18.15;;;6.60;99.90;;;;;;2602972;54;20774;31
2022/12/23 06:44:19;;;;;;;19.75;13.45;;;6.60;99.90;;;;;;2603012;54;20023;31
2022/12/23 06:46:55;;;;;;;15.32;11.10;;;6.60;99.90;;;;;;2602897;54;20829;31
2022/12/23 06:49:29;;;;;;;14.18;10.80;;;6.60;99.90;;;;;;2602896;54;20920;31
2022/12/23 06:52:03;;;;;;;14.75;10.10;;;6.60;99.90;;;;;;2602659;54;20042;31
2022/12/23 06:54:38;;;;;;;14.88;9.63;;;6.60;99.90;;;;;;2602995;54;20037;31
2022/12/23 06:57:18;;;;;;;13.40;9.73;;;6.70;99.90;;;;;;2603102;54;20921;31
2022/12/23 07:00:04;;;;;;;14.50;10.13;;;6.70;99.90;;;;;;2602821;54;21082;31
2022/12/23 07:02:39;;;;;;;15.55;10.07;;;6.70;99.90;;;;;;2602921;54;20034;31
2022/12/23 07:05:16;;;;;;;17.65;9.07;;;6.70;99.90;;;;;;2603026;54;20030;31
2022/12/23 07:07:50;;;;;;;;;;;6.80;99.90;;;;;;2603954;54;20105;31
2022/12/23 07:10:26;;;;;;;16.33;9.75;;;6.80;99.90;;;;;;2603821;54;20848;31
2022/12/23 07:13:02;;;;;;;13.90;8.57;;;6.80;99.90;;;;;;2603874;54;20088;31
2022/12/23 07:15:39;;;;;;;16.10;9.38;;;6.80;99.90;;;;;;2603729;54;20912;31
2022/12/23 07:18:17;;;;;;;14.55;9.20;;;6.80;99.90;;;;;;2603789;54;20023;31
2022/12/23 07:20:52;;;;;;;13.30;8.83;;;6.80;99.90;;;;;;2603046;54;20943;31
2022/12/23 07:23:27;;;;;;;21.05;9.73;;;6.80;99.90;;;;;;2603612;54;21053;31
2022/12/23 07:26:03;;;;;;;15.57;9.43;;;6.80;99.90;;;;;;2603595;54;20913;31
2022/12/23 07:28:38;;;;;;;16.50;10.30;;;6.80;99.90;;;;;;2603753;54;20288;31
2022/12/23 07:31:16;;;;;;;17.27;8.68;;;6.80;99.90;;;;;;2603642;54;20855;31
2022/12/23 07:33:51;;;;;;;40.45;25.05;;;6.80;99.90;;;;;;2603478;54;20212;31
2022/12/23 07:36:31;;;;;;;58.33;37.23;;;6.90;99.90;;;;;;2603641;54;20109;31
2022/12/23 07:39:07;;;;;;;45.70;27.20;;;6.80;99.90;;;;;;2603690;54;20323;31
2022/12/23 07:41:42;;;;;;;39.30;22.65;;;6.90;99.90;;;;;;2603564;54;20027;31
2022/12/23 07:44:19;;;;;;;75.73;40.73;;;6.90;99.90;;;;;;2603872;54;20052;31
2022/12/23 07:46:57;;;;;;;30.27;18.92;;;6.90;99.90;;;;;;2603443;54;20251;31
2022/12/23 07:49:30;;;;;;;26.63;12.98;;;6.90;99.90;;;;;;2603612;54;20906;31
2022/12/23 07:52:05;;;;;;;16.80;10.20;;;6.90;99.90;;;;;;2609813;39;22184;31
2022/12/23 07:54:43;;;;;;;;;;;6.90;99.90;;;;;;2603788;54;20022;31
2022/12/23 07:57:26;;;;;;;21.55;10.63;;;6.90;99.90;;;;;;2602706;54;19950;31
2022/12/23 08:00:02;;;;;;;20.02;9.93;;;7.00;99.90;;;;;;2603538;54;20022;31
2022/12/23 08:02:50;;;;;;;12.73;8.40;;;7.00;99.90;;;;;;2603601;54;20042;31
2022/12/23 08:05:27;;;;;;;16.95;9.95;;;7.00;99.90;;;;;;2603450;54;20026;31
2022/12/23 08:08:05;;;;;;;18.48;8.73;;;7.00;99.90;;;;;;2603374;54;20027;31
2022/12/23 08:10:40;;;;;;;14.10;8.93;;;7.00;99.90;;;;;;2602668;54;20072;31
2022/12/23 08:13:22;;;;;;;14.90;9.30;;;7.00;99.90;;;;;;2603677;54;20022;31
2022/12/23 08:16:00;;;;;;;17.10;9.95;;;7.10;99.90;;;;;;2603644;54;21037;31
2022/12/23 08:18:39;;;;;;;16.63;8.93;;;7.10;99.90;;;;;;2603389;54;20030;31
2022/12/23 08:21:17;;;;;;;18.40;9.30;;;7.10;99.90;;;;;;2603507;54;20129;31
2022/12/23 08:23:54;;;;;;;19.65;8.15;;;7.10;99.90;;;;;;2602883;54;20198;31
2022/12/23 08:26:30;;;;;;;16.10;9.50;;;7.10;99.90;;;;;;2615952;46;20023;31
2022/12/23 08:29:12;;;;;;;13.05;8.63;;;7.10;99.90;;;;;;2602608;54;20103;31
2022/12/23 08:31:49;;;;;;;13.98;8.70;;;7.10;99.90;;;;;;2603784;54;20046;31
2022/12/23 08:34:27;;;;;;;11.75;7.38;;;7.20;99.90;;;;;;2603166;54;20890;31
2022/12/23 08:37:05;;;;;;;10.88;7.53;;;7.20;99.90;;;;;;2603359;54;20045;31
2022/12/23 08:39:41;;;;;;;;;;;7.20;99.90;;;;;;2603686;54;20942;31
2022/12/23 08:42:16;;;;;;;12.40;7.50;;;7.20;99.90;;;;;;2603541;54;20784;31
2022/12/23 08:44:52;;;;;;;12.07;6.73;;;7.20;99.90;;;;;;2621599;46;20154;31
2022/12/23 08:47:28;;;;;;;11.85;6.75;;;7.20;99.90;;;;;;2603412;54;20022;31
2022/12/23 08:50:12;;;;;;;8.75;5.85;;;7.20;99.90;;;;;;2603501;54;20026;31
2022/12/23 08:52:48;;;;;;;14.07;7.20;;;7.20;99.90;;;;;;2603759;54;20048;31
2022/12/23 08:55:25;;;;;;;14.32;7.38;;;7.30;99.90;;;;;;2603343;54;21112;31
2022/12/23 08:58:00;;;;;;;13.27;7.13;;;7.30;99.90;;;;;;2614217;31;22193;31
2022/12/23 09:00:36;;;;;;;11.20;6.32;;;7.40;99.90;;;;;;2603400;54;20053;31
2022/12/23 09:03:13;;;;;;;;;;;7.40;99.90;;;;;;2603679;54;20094;31
2022/12/23 09:05:52;;;;;;;8.70;6.00;;;7.40;99.90;;;;;;2621673;46;19982;31
2022/12/23 09:08:30;;;;;;;12.15;6.10;;;7.50;99.90;;;;;;2603339;54;20836;31
2022/12/23 09:11:07;;;;;;;11.65;7.65;;;7.50;99.90;;;;;;2603402;54;20803;31
2022/12/23 09:13:42;;;;;;;9.93;6.72;;;7.60;99.90;;;;;;2603443;54;20038;31
2022/12/23 09:16:19;;;;;;;11.02;6.45;;;7.60;99.90;;;;;;2603332;54;20025;31
2022/12/23 09:18:57;;;;;;;14.20;8.90;;;7.60;99.90;;;;;;2603406;54;20023;31
2022/12/23 09:21:36;;;;;;;16.65;7.60;;;7.60;99.90;;;;;;2603461;54;20852;31
2022/12/23 09:24:12;;;;;;;15.55;7.90;;;7.70;99.90;;;;;;2603325;54;20815;31
2022/12/23 09:26:49;;;;;;;13.73;7.05;;;7.70;99.90;;;;;;2603409;54;20057;31
2022/12/23 09:29:26;;;;;;;10.88;7.32;;;7.70;99.90;;;;;;2603276;54;20916;31
2022/12/23 09:32:03;;;;;;;15.30;8.13;;;7.70;99.90;;;;;;2602950;54;20137;31
2022/12/23 09:34:39;;;;;;;18.23;9.73;;;7.80;99.90;;;;;;2621753;46;20568;31
2022/12/23 09:37:17;;;;;;;;;;;7.80;99.90;;;;;;2603629;54;20018;31
2022/12/23 09:39:55;;;;;;;19.38;11.43;;;7.80;99.90;;;;;;2603159;54;20000;31
2022/12/23 09:42:43;;;;;;;17.10;8.60;;;7.80;99.90;;;;;;2602620;54;20026;31
2022/12/23 09:45:26;;;;;;;12.30;7.55;;;7.80;99.90;;;;;;2603104;54;21116;31
2022/12/23 09:48:02;;;;;;;13.52;7.95;;;7.80;99.90;;;;;;2603249;54;20914;31
2022/12/23 09:50:38;;;;;;;;;;;7.90;99.90;;;;;;2621899;46;20848;31
2022/12/23 09:53:19;;;;;;;15.98;8.75;;;7.90;99.90;;;;;;2602929;54;20823;31
2022/12/23 09:55:58;;;;;;;13.60;8.50;;;7.90;99.90;;;;;;2603358;54;20038;31
2022/12/23 09:58:36;;;;;;;14.23;7.90;;;7.90;99.90;;;;;;2603391;54;20900;31
2022/12/23 10:01:18;;;;;;;12.90;7.95;;;7.90;99.90;;;;;;2603215;54;20817;31
2022/12/23 10:04:18;;;;;;;15.33;7.13;;;7.90;99.90;;;;;;2603388;54;20023;31
2022/12/23 10:06:58;;;;;;;16.85;7.50;;;8.00;99.90;;;;;;2602925;54;20026;31
2022/12/23 10:09:39;;;;;;;10.65;7.00;;;8.00;99.90;;;;;;2603492;54;20042;31
2022/12/23 10:12:18;;;;;;;7.82;5.32;;;8.00;99.90;;;;;;2602739;54;20897;31
2022/12/23 10:15:05;;;;;;;12.38;6.10;;;8.00;99.90;;;;;;2621365;46;21268;31
2022/12/23 10:17:43;;;;;;;9.40;4.95;;;8.10;99.90;;;;;;2602388;54;20052;31
2022/12/23 10:20:19;;;;;;;7.15;5.50;;;8.10;99.90;;;;;;2603015;54;20902;31
2022/12/23 10:22:55;;;;;;;8.95;5.47;;;8.10;99.90;;;;;;2621742;46;20026;31
2022/12/23 10:25:35;;;;;;;9.43;5.00;;;8.20;99.90;;;;;;2603045;54;20925;31
2022/12/23 10:28:17;;;;;;;8.90;4.55;;;8.20;99.90;;;;;;2603020;54;20034;31
2022/12/23 10:31:05;;;;;;;9.27;4.53;;;8.20;99.90;;;;;;2602915;54;20967;31
2022/12/23 10:34:03;;;;;;;12.10;4.28;;;8.20;99.90;;;;;;2602995;54;20077;31
2022/12/23 10:36:44;;;;;;;9.77;5.30;;;8.20;99.90;;;;;;2602877;54;20111;31
2022/12/23 10:39:25;;;;;;;8.30;5.00;;;8.20;99.90;;;;;;2602084;54;20231;31
2022/12/23 10:42:09;;;;;;;5.95;3.75;;;8.20;99.90;;;;;;2602877;54;20831;31
2022/12/23 10:45:06;;;;;;;12.00;4.80;;;8.20;99.90;;;;;;2603082;54;20860;31
2022/12/23 10:47:49;;;;;;;10.18;4.35;;;8.20;99.90;;;;;;2602749;54;20030;31
2022/12/23 10:50:53;;;;;;;7.50;3.78;;;8.30;99.90;;;;;;2602904;54;20875;31
2022/12/23 10:53:33;;;;;;;9.68;4.18;;;8.30;99.90;;;;;;2603072;54;20022;31
2022/12/23 10:56:11;;;;;;;8.88;4.05;;;8.30;99.90;;;;;;2602952;54;20868;31
2022/12/23 10:58:52;;;;;;;7.30;4.40;;;8.30;99.90;;;;;;2603276;54;20029;31
2022/12/23 11:01:28;;;;;;;8.40;5.10;;;8.30;99.90;;;;;;2603178;54;20113;31
2022/12/23 11:04:06;;;;;;;;;;;8.30;99.90;;;;;;2603067;54;20034;31
2022/12/23 11:06:44;;;;;;;7.85;3.25;;;8.40;99.90;;;;;;2603164;54;19935;31
2022/12/23 11:09:19;;;;;;;8.45;4.43;;;8.40;99.90;;;;;;2602965;54;20925;31
2022/12/23 11:11:59;;;;;;;7.60;3.37;;;8.40;99.90;;;;;;2602833;54;20085;31
2022/12/23 11:14:40;;;;;;;8.73;3.42;;;8.40;99.90;;;;;;2602855;54;20031;31
2022/12/23 11:17:24;;;;;;;6.45;3.45;;;8.40;99.90;;;;;;2602926;54;20027;31
2022/12/23 11:20:09;;;;;;;7.00;3.22;;;8.40;99.90;;;;;;2603025;54;20904;31
2022/12/23 11:22:50;;;;;;;5.70;3.20;;;8.50;99.90;;;;;;2603907;54;20171;31
2022/12/23 11:25:24;;;;;;;6.85;3.38;;;8.50;99.90;;;;;;2621449;47;20042;31
2022/12/23 11:28:01;;;;;;;6.65;3.38;;;8.50;99.90;;;;;;2621128;47;20129;31
2022/12/23 11:30:48;;;;;;;7.35;4.50;;;8.50;99.90;;;;;;2603078;54;20874;31
2022/12/23 11:33:28;;;;;;;7.15;4.55;;;8.50;99.90;;;;;;2701175;39;20553;31
2022/12/23 11:36:04;;;;;;;6.93;4.05;;;8.60;99.90;;;;;;2603092;54;20936;31
2022/12/23 11:38:49;;;;;;;;;;;8.60;99.90;;;;;;2603283;54;20859;31
2022/12/23 11:41:25;;;;;;;10.17;4.13;;;8.70;99.90;;;;;;2602449;54;19935;31
2022/12/23 11:44:02;;;;;;;10.65;4.88;;;8.70;99.90;;;;;;2621282;47;20723;31
2022/12/23 11:46:40;;;;;;;11.00;4.18;;;8.70;99.90;;;;;;2602856;54;20022;31
2022/12/23 11:49:19;;;;;;;9.02;4.95;;;8.70;99.90;;;;;;2602733;54;20884;31
2022/12/23 11:52:13;;;;;;;6.95;3.75;;;8.70;99.90;;;;;;2620878;47;20022;31
2022/12/23 11:57:52;;;;;;;6.80;3.38;;;8.70;99.90;;;;;;2702000;39;20557;31
2022/12/23 12:00:35;;;;;;;6.72;3.40;;;8.80;99.90;;;;;;2603729;54;20042;31
2022/12/23 12:03:19;;;;;;;4.50;2.65;;;8.80;99.90;;;;;;2603504;54;20787;31
2022/12/23 12:05:53;;;;;;;5.90;2.92;;;8.80;99.90;;;;;;2603609;54;20844;31
2022/12/23 12:08:32;;;;;;;8.55;4.95;;;8.90;99.90;;;;;;2603472;54;20030;31
2022/12/23 12:11:14;;;;;;;4.47;2.55;;;8.90;99.90;;;;;;2602673;54;20041;31
2022/12/23 12:13:55;;;;;;;3.45;2.40;;;8.90;99.90;;;;;;2618301;46;20088;31
2022/12/23 12:16:44;;;;;;;5.95;2.80;;;9.00;99.90;;;;;;2603599;54;20124;31
2022/12/23 12:19:24;;;;;;;4.93;3.10;;;9.00;99.90;;;;;;2603349;54;20026;31
2022/12/23 12:22:01;;;;;;;6.50;3.45;;;9.00;99.90;;;;;;2603530;54;20081;31
2022/12/23 12:24:39;;;;;;;6.90;4.30;;;9.00;99.90;;;;;;2603180;54;20036;31
2022/12/23 12:27:14;;;;;;;7.10;3.95;;;9.00;99.90;;;;;;2603376;54;20064;31
2022/12/23 12:29:52;;;;;;;7.50;4.00;;;9.10;99.90;;;;;;2603586;54;20823;31
2022/12/23 12:32:31;;;;;;;7.35;4.30;;;9.10;99.90;;;;;;2603627;54;20810;31
2022/12/23 12:35:10;;;;;;;7.10;4.30;;;9.10;99.90;;;;;;2603346;54;20829;31
2022/12/23 12:37:48;;;;;;;11.13;4.37;;;9.20;99.90;;;;;;2603490;54;20804;31
2022/12/23 12:40:28;;;;;;;8.30;4.60;;;9.20;99.90;;;;;;2603600;54;20049;31
2022/12/23 12:43:07;;;;;;;11.25;4.88;;;9.20;99.90;;;;;;2603724;54;20048;31
2022/12/23 12:45:43;;;;;;;6.68;4.68;;;9.30;99.90;;;;;;2603413;54;20034;31
2022/12/23 12:48:27;;;;;;;8.17;4.67;;;9.30;99.90;;;;;;2603505;54;20022;31
2022/12/23 12:51:18;;;;;;;10.48;4.93;;;9.30;99.90;;;;;;2603628;54;20027;31
2022/12/23 12:54:06;;;;;;;6.35;4.35;;;9.30;99.90;;;;;;2603098;54;20102;31
2022/12/23 12:56:43;;;;;;;8.65;4.60;;;9.30;99.90;;;;;;2621747;46;20859;31
2022/12/23 12:59:19;;;;;;;6.40;4.17;;;9.30;99.90;;;;;;2603742;54;20038;31
2022/12/23 13:02:04;;;;;;;6.30;4.40;;;9.30;99.90;;;;;;2602621;54;20836;31
2022/12/23 13:05:00;;;;;;;7.70;4.70;;;9.30;99.90;;;;;;2603222;54;20872;31
2022/12/23 13:07:39;;;;;;;8.23;4.75;;;9.30;99.90;;;;;;2701677;39;22341;31
2022/12/23 13:10:16;;;;;;;6.00;4.35;;;9.30;99.90;;;;;;2603542;54;20938;31
2022/12/23 13:12:55;;;;;;;7.43;4.53;;;9.30;99.90;;;;;;2603418;54;20913;31
2022/12/23 13:15:32;;;;;;;8.60;5.00;;;9.30;99.90;;;;;;2603502;54;20019;31
2022/12/23 13:18:15;;;;;;;10.25;4.45;;;9.30;99.90;;;;;;2603372;54;20030;31
2022/12/23 13:20:53;;;;;;;6.70;4.38;;;9.30;99.90;;;;;;2603352;54;20038;31
2022/12/23 13:23:36;;;;;;;9.70;5.60;;;9.30;99.90;;;;;;2603154;54;20773;31
2022/12/23 13:26:24;;;;;;;8.95;5.05;;;9.30;99.90;;;;;;2603493;54;20807;31
2022/12/23 13:29:06;;;;;;;10.07;5.00;;;9.30;99.90;;;;;;2602463;54;20033;31
2022/12/23 13:31:46;;;;;;;8.85;5.40;;;9.30;99.90;;;;;;2603314;54;20257;31
2022/12/23 13:34:27;;;;;;;8.48;5.53;;;9.30;99.90;;;;;;2603353;54;20904;31
2022/12/23 13:37:01;;;;;;;8.40;5.35;;;9.40;99.90;;;;;;2603192;54;20038;31
2022/12/23 13:39:46;;;;;;;7.25;5.25;;;9.40;99.90;;;;;;2701188;39;20466;31
2022/12/23 13:42:27;;;;;;;7.53;4.60;;;9.40;99.90;;;;;;2603458;54;20901;31
2022/12/23 13:45:03;;;;;;;6.78;4.13;;;9.40;99.90;;;;;;2603273;54;20834;31
2022/12/23 13:47:43;;;;;;;8.90;4.60;;;9.40;99.90;;;;;;2603181;54;20114;31
2022/12/23 13:50:15;;;;;;;6.90;4.10;;;9.40;99.90;;;;;;2603326;54;20104;31
2022/12/23 13:53:03;;;;;;;8.37;3.97;;;9.40;99.90;;;;;;2603211;54;20030;31
2022/12/23 13:55:59;;;;;;;7.20;3.83;;;9.40;99.90;;;;;;2603269;54;20085;31
2022/12/23 13:58:35;;;;;;;6.25;3.40;;;9.40;99.90;;;;;;2621663;46;20085;31
2022/12/23 14:01:33;;;;;;;7.65;4.20;;;9.40;99.90;;;;;;2621594;46;20034;31
2022/12/23 14:04:38;;;;;;;8.40;4.60;;;9.40;99.90;;;;;;2603213;54;20018;31
2022/12/23 14:07:20;;;;;;;6.70;4.03;;;9.40;99.90;;;;;;2602909;54;20050;31
2022/12/23 14:09:57;;;;;;;5.43;3.40;;;9.50;99.90;;;;;;2603267;54;20022;31
2022/12/23 14:12:37;;;;;;;8.15;5.15;;;9.40;99.90;;;;;;2603183;54;20847;31
2022/12/23 14:15:31;;;;;;;10.00;4.87;;;9.50;99.90;;;;;;2602171;54;20030;31
2022/12/23 14:18:13;;;;;;;6.97;4.95;;;9.60;99.90;;;;;;2603280;54;20940;31
2022/12/23 14:20:51;;;;;;;5.97;4.63;;;9.50;99.90;;;;;;2603360;54;20118;31
2022/12/23 14:23:33;;;;;;;7.70;5.20;;;9.60;99.90;;;;;;2603147;54;20030;31
2022/12/23 14:26:32;;;;;;;7.25;4.45;;;9.60;99.90;;;;;;2603269;54;20049;31
2022/12/23 14:29:26;;;;;;;6.80;4.22;;;9.50;99.90;;;;;;2711008;39;21526;31
2022/12/23 14:32:04;;;;;;;6.30;4.75;;;9.50;99.90;;;;;;2602992;54;20022;31
2022/12/23 14:34:39;;;;;;;8.75;3.97;;;9.50;99.90;;;;;;2603118;54;20897;31
2022/12/23 14:37:36;;;;;;;8.10;4.75;;;9.40;99.90;;;;;;2603261;54;20838;31